Cherry Point MCAS /Cunningham Field/
KNKT : now visible

Airfield :











YOU CAN JOIN US ON...

 
LOGIN :

Register | Disclaimer

   EN    FR    IT 

 









Legend :    VFR   Marginal VFR   IFR   Intensive IFR   Very Intensive IFR
Visi :
Ceiling :
>= 8 km
>= 3000ft
5 to 8 km
1000 to 3000 ft
1500m to 5 km
500 to 1000 ft
800 to 1500m
200 to 500 ft
< 800m
< 200 ft
Symbols :   Thunderstorms  Fog  Heavy snow  Heavy precipitations  Wind > 20 kt






- Airport Elevation : 29 ft


KNKT - Cherry Point MCAS /Cunningham Field/

CURRENT METAR :
  • 261556Z 20005KT 10SM BKN033 28/21 A2992 RMK AO2 SLP128 T02780206

EXPIRED METARs :
  • 261456Z 20006KT 10SM SCT050 28/21 A2992 RMK AO2 SLP128 T02780211 53001
  • 261356Z 00000KT 10SM FEW180 27/21 A2992 RMK AO2 SLP127 T02670206
  • 261256Z 22005KT 10SM FEW060 25/21 A2991 RMK AO2 SLP127 T02500206
  • 261156Z 19004KT 10SM CLR 23/19 A2992 RMK AO2 SLP127 T02280194 10228 20172

Expired Forecast.
KZDC FIR / North America



MET'MAP, your aeronautical weather chart ! - Copyright ORBIFLY December 2007 - Disclaimer

ORBIFLY MET'MAP TEAM :

Programming & Development : Alexandra Zaïnal
Original concept : Baudouin d'Aumeries
Technical & hardware support : Manuel Goepfert
Assistance : Marc-Olivier Méhu




SOURCES & CREDITS :

   NOAA       Earth
Advisory